createdAt,value
2018-12-20T00:00:12.705Z,105.80
2018-12-20T00:02:48.986Z,128.80
2018-12-20T00:05:25.122Z,127.73
2018-12-20T00:08:01.848Z,177.70
2018-12-20T00:10:38.243Z,155.03
2018-12-20T00:13:14.755Z,170.00
2018-12-20T00:15:50.872Z,143.33
2018-12-20T00:18:26.875Z,145.73
2018-12-20T00:21:02.952Z,141.23
2018-12-20T00:23:39.403Z,135.87
2018-12-20T00:26:16.022Z,122.53
2018-12-20T00:28:52.165Z,118.77
2018-12-20T00:31:28.452Z,113.10
2018-12-20T00:34:04.685Z,140.53
2018-12-20T00:36:41.259Z,151.57
2018-12-20T00:39:17.794Z,128.87
2018-12-20T00:41:53.987Z,129.10
2018-12-20T00:44:37.267Z,113.17
2018-12-20T00:47:08.237Z,116.53
2018-12-20T00:49:44.534Z,111.37
2018-12-20T00:52:20.641Z,99.53
2018-12-20T00:54:56.563Z,110.07
2018-12-20T00:57:33.199Z,132.33
2018-12-20T01:00:12.026Z,121.73
2018-12-20T01:02:55.040Z,117.87
2018-12-20T01:05:26.822Z,115.10
2018-12-20T01:08:04.157Z,107.70
2018-12-20T01:10:41.166Z,104.23
2018-12-20T01:13:17.063Z,133.10
2018-12-20T01:15:53.673Z,120.30
2018-12-20T01:18:29.869Z,124.27
2018-12-20T01:21:05.874Z,118.37
2018-12-20T01:23:42.586Z,123.63
2018-12-20T01:26:18.887Z,137.90
2018-12-20T01:28:54.688Z,121.90
2018-12-20T01:31:30.706Z,112.43
2018-12-20T01:34:06.811Z,119.37
2018-12-20T01:36:42.848Z,117.17
2018-12-20T01:39:19.242Z,115.47
2018-12-20T01:41:55.257Z,112.63
2018-12-20T01:44:31.433Z,95.70
2018-12-20T01:54:19.933Z,109.40
2018-12-20T01:56:56.689Z,126.17
2018-12-20T01:59:33.001Z,124.50
2018-12-20T02:02:09.352Z,121.57
2018-12-20T02:04:46.349Z,118.97
2018-12-20T02:07:22.405Z,111.43
2018-12-20T02:09:59.127Z,100.57
2018-12-20T02:12:36.201Z,118.83
2018-12-20T02:15:12.486Z,144.73
2018-12-20T02:17:48.754Z,128.87
2018-12-20T02:20:24.851Z,114.63
2018-12-20T02:23:00.950Z,132.63
2018-12-20T02:25:37.637Z,119.83
2018-12-20T02:28:13.659Z,124.13
2018-12-20T02:30:50.334Z,134.73
2018-12-20T02:33:28.366Z,133.97
2018-12-20T02:36:04.740Z,163.03
2018-12-20T02:38:41.264Z,157.07
2018-12-20T02:41:17.448Z,188.30
2018-12-20T02:43:53.679Z,145.43
2018-12-20T02:46:30.871Z,120.93
2018-12-20T02:49:07.127Z,127.23
2018-12-20T02:51:43.095Z,180.10
2018-12-20T02:54:19.313Z,155.27
2018-12-20T02:56:55.946Z,152.57
2018-12-20T02:59:32.184Z,142.20
2018-12-20T03:02:08.783Z,146.23
2018-12-20T03:04:45.228Z,124.87
2018-12-20T03:07:21.614Z,112.00
2018-12-20T03:09:57.676Z,108.60
2018-12-20T03:12:34.170Z,108.27
2018-12-20T03:15:19.715Z,116.60
2018-12-20T03:17:49.160Z,108.63
2018-12-20T03:20:25.380Z,113.93
2018-12-20T03:23:02.100Z,112.90
2018-12-20T03:25:39.602Z,122.27
2018-12-20T03:28:16.018Z,133.67
2018-12-20T03:30:52.540Z,133.80
2018-12-20T03:33:29.053Z,124.00
2018-12-20T03:36:05.929Z,122.17
2018-12-20T03:38:42.427Z,92.60
2018-12-20T03:41:18.734Z,97.13
2018-12-20T03:43:55.379Z,90.10
2018-12-20T03:46:31.873Z,106.53
2018-12-20T03:49:08.157Z,117.80
2018-12-20T03:51:47.287Z,115.07
2018-12-20T03:54:23.807Z,123.97
2018-12-20T03:57:00.269Z,119.53
2018-12-20T03:59:36.422Z,145.80
2018-12-20T04:02:12.689Z,136.80
2018-12-20T04:04:49.017Z,123.43
2018-12-20T04:07:25.153Z,126.90
2018-12-20T04:10:01.835Z,106.63
2018-12-20T04:12:38.453Z,160.87
2018-12-20T04:15:15.080Z,176.13
2018-12-20T04:17:51.374Z,148.60
2018-12-20T04:20:28.010Z,154.00
2018-12-20T04:23:04.769Z,151.13
2018-12-20T04:25:41.321Z,138.97
2018-12-20T04:28:17.675Z,140.30
2018-12-20T04:30:55.132Z,149.97
2018-12-20T04:33:31.529Z,198.43
2018-12-20T04:36:07.684Z,163.87
2018-12-20T04:38:44.549Z,157.70
2018-12-20T04:41:21.140Z,151.10
2018-12-20T04:43:57.131Z,123.77
2018-12-20T04:46:33.583Z,157.17
2018-12-20T04:49:09.779Z,136.27
2018-12-20T04:51:46.314Z,130.03
2018-12-20T04:54:22.789Z,146.40
2018-12-20T04:56:58.893Z,143.47
2018-12-20T04:59:35.126Z,178.27
2018-12-20T05:02:11.990Z,176.90
2018-12-20T05:04:48.577Z,190.93
2018-12-20T05:07:24.880Z,188.73
2018-12-20T05:10:01.939Z,153.07
2018-12-20T05:12:38.464Z,156.80
2018-12-20T05:15:15.019Z,207.67
2018-12-20T05:18:16.715Z,133.10
2018-12-20T05:21:08.138Z,147.03
2018-12-20T05:23:44.841Z,237.10
2018-12-20T05:26:21.774Z,197.10
2018-12-20T05:28:58.015Z,133.80
2018-12-20T05:31:34.025Z,129.60
2018-12-20T05:34:10.194Z,110.53
2018-12-20T05:36:46.429Z,128.63
2018-12-20T05:39:23.197Z,222.40
2018-12-20T05:41:59.216Z,137.07
2018-12-20T05:44:35.273Z,228.00
2018-12-20T05:47:11.375Z,159.87
2018-12-20T05:49:47.674Z,171.67
2018-12-20T05:52:24.084Z,131.10
2018-12-20T05:55:00.465Z,98.40
2018-12-20T05:57:36.479Z,105.53
2018-12-20T06:00:12.782Z,109.73
2018-12-20T06:02:49.341Z,78.47
2018-12-20T06:05:25.944Z,88.03
2018-12-20T06:08:01.941Z,83.30
2018-12-20T06:10:38.341Z,141.00
2018-12-20T06:13:14.569Z,174.63
2018-12-20T06:15:51.131Z,229.17
2018-12-20T06:18:27.634Z,152.60
2018-12-20T06:21:04.220Z,134.83
2018-12-20T06:23:40.153Z,145.73
2018-12-20T06:26:16.214Z,150.67
2018-12-20T06:30:16.587Z,199.17
2018-12-20T06:32:52.850Z,158.57
2018-12-20T06:35:28.886Z,141.17
2018-12-20T06:38:05.027Z,84.80
2018-12-20T06:40:40.970Z,140.73
2018-12-20T06:43:17.071Z,147.30
2018-12-20T06:45:52.896Z,152.23
2018-12-20T06:48:28.975Z,148.50
2018-12-20T06:51:07.911Z,153.87
2018-12-20T06:54:01.283Z,204.00
2018-12-20T06:56:39.482Z,330.27
2018-12-20T06:59:15.576Z,142.33
2018-12-20T07:01:51.594Z,125.37
2018-12-20T07:04:27.789Z,166.17
2018-12-20T07:07:04.027Z,198.63
2018-12-20T07:09:40.118Z,209.13
2018-12-20T07:12:16.183Z,191.33
2018-12-20T07:14:52.277Z,349.93
2018-12-20T07:17:31.862Z,220.30
2018-12-20T07:20:09.033Z,399.37
2018-12-20T07:22:45.010Z,270.70
2018-12-20T07:25:21.166Z,188.57
2018-12-20T07:27:57.115Z,175.43
2018-12-20T07:30:33.205Z,140.07
2018-12-20T07:33:09.014Z,145.30
2018-12-20T07:35:45.349Z,154.97
2018-12-20T07:38:21.359Z,143.23
2018-12-20T07:40:57.391Z,142.13
2018-12-20T07:43:33.476Z,165.63
2018-12-20T07:46:09.619Z,169.27
2018-12-20T07:48:45.682Z,134.47
2018-12-20T07:51:21.726Z,191.27
2018-12-20T08:00:54.460Z,147.10
2018-12-20T08:03:30.654Z,130.40
2018-12-20T08:06:06.441Z,201.90
2018-12-20T08:08:42.484Z,178.40
2018-12-20T08:11:19.892Z,158.60
2018-12-20T08:13:55.848Z,396.40
2018-12-20T08:16:31.966Z,347.13
2018-12-20T08:19:07.927Z,153.13
2018-12-20T08:21:44.037Z,109.90
2018-12-20T08:24:20.066Z,138.43
2018-12-20T08:26:56.147Z,138.40
2018-12-20T08:29:32.171Z,120.57
2018-12-20T08:32:08.562Z,124.47
2018-12-20T08:34:44.620Z,155.53
2018-12-20T08:37:20.730Z,202.23
2018-12-20T08:39:56.713Z,242.00
2018-12-20T08:42:32.834Z,217.03
2018-12-20T08:45:08.944Z,165.00
2018-12-20T08:47:45.547Z,141.20
2018-12-20T08:50:22.601Z,143.03
2018-12-20T08:52:58.807Z,174.17
2018-12-20T08:55:34.943Z,148.00
2018-12-20T08:58:11.022Z,164.00
2018-12-20T09:00:47.027Z,187.60
2018-12-20T09:03:23.190Z,219.77
2018-12-20T09:05:59.490Z,220.60
2018-12-20T09:08:35.583Z,205.90
2018-12-20T09:11:11.719Z,201.60
2018-12-20T09:13:47.705Z,310.03
2018-12-20T09:16:24.682Z,157.30
2018-12-20T09:19:00.796Z,137.97
2018-12-20T09:21:36.745Z,161.23
2018-12-20T09:24:13.128Z,93.57
2018-12-20T09:26:50.625Z,228.27
2018-12-20T09:29:26.990Z,114.07
2018-12-20T09:32:03.189Z,102.83
2018-12-20T09:34:39.333Z,122.37
2018-12-20T09:37:15.765Z,111.47
2018-12-20T09:41:16.325Z,146.67
2018-12-20T09:43:52.176Z,142.50
2018-12-20T09:46:28.292Z,174.87
2018-12-20T09:49:05.416Z,235.13
2018-12-20T09:51:42.129Z,280.30
2018-12-20T09:54:18.456Z,142.87
2018-12-20T09:56:54.398Z,132.47
2018-12-20T09:59:30.404Z,154.63
2018-12-20T10:02:06.520Z,139.47
2018-12-20T10:04:42.551Z,161.27
2018-12-20T10:07:18.715Z,134.80
2018-12-20T10:09:54.929Z,149.10
2018-12-20T10:12:31.051Z,183.87
2018-12-20T10:15:08.634Z,158.07
2018-12-20T10:17:45.999Z,128.93
2018-12-20T10:20:21.965Z,166.07
2018-12-20T10:24:22.174Z,153.30
2018-12-20T10:26:58.309Z,129.37
2018-12-20T10:29:34.359Z,171.73
2018-12-20T10:32:10.781Z,145.73
2018-12-20T10:34:47.089Z,155.23
2018-12-20T10:37:23.106Z,161.37
2018-12-20T10:39:59.634Z,206.33
2018-12-20T10:42:35.833Z,182.20
2018-12-20T10:45:11.625Z,357.93
2018-12-20T10:47:47.660Z,191.73
2018-12-20T10:50:23.798Z,168.23
2018-12-20T10:53:00.180Z,195.27
2018-12-20T10:55:36.215Z,178.17
2018-12-20T10:58:12.498Z,148.80
2018-12-20T11:00:53.637Z,168.43
2018-12-20T11:03:35.114Z,157.40
2018-12-20T11:06:16.317Z,158.87
2018-12-20T11:08:58.007Z,155.67
2018-12-20T11:11:39.115Z,160.10
2018-12-20T11:14:15.282Z,159.47
2018-12-20T11:16:51.381Z,167.30
2018-12-20T11:19:27.403Z,190.77
2018-12-20T11:22:03.513Z,212.30
2018-12-20T11:24:39.527Z,181.20
2018-12-20T11:27:15.688Z,143.40
2018-12-20T11:29:51.937Z,163.97
2018-12-20T11:32:28.086Z,137.60
2018-12-20T11:35:04.190Z,128.73
2018-12-20T11:37:40.188Z,115.47
2018-12-20T11:40:16.211Z,105.17
2018-12-20T11:42:52.306Z,121.77
2018-12-20T11:45:28.310Z,190.93
2018-12-20T11:48:04.429Z,163.73
2018-12-20T11:50:40.447Z,168.20
2018-12-20T11:53:16.364Z,177.67
2018-12-20T11:55:52.878Z,168.17
2018-12-20T11:58:29.006Z,160.67
2018-12-20T12:01:04.987Z,187.10
2018-12-20T12:03:41.117Z,172.60
2018-12-20T12:06:17.105Z,179.67
2018-12-20T12:08:52.891Z,164.33
2018-12-20T12:11:28.944Z,189.03
2018-12-20T12:14:05.523Z,123.87
2018-12-20T12:16:41.343Z,121.30
2018-12-20T12:19:17.461Z,162.93
2018-12-20T12:21:53.797Z,128.03
2018-12-20T12:24:29.886Z,118.10
2018-12-20T12:27:05.953Z,114.30
2018-12-20T12:29:42.074Z,94.67
2018-12-20T12:32:18.007Z,75.43
2018-12-20T12:34:54.128Z,52.83
2018-12-20T12:37:30.110Z,52.87
2018-12-20T12:40:07.983Z,28.50
2018-12-20T12:42:44.573Z,32.47
2018-12-20T12:45:20.590Z,23.87
2018-12-20T12:48:03.716Z,107.27
2018-12-20T12:50:40.323Z,36.80
2018-12-20T12:53:16.466Z,28.97
2018-12-20T12:55:52.280Z,51.20
2018-12-20T12:58:28.451Z,87.50
2018-12-20T13:01:04.923Z,33.00
2018-12-20T13:03:41.327Z,47.17
2018-12-20T13:06:17.751Z,58.97
2018-12-20T13:08:53.591Z,59.67
2018-12-20T13:11:29.729Z,72.77
2018-12-20T13:14:05.748Z,69.00
2018-12-20T13:16:41.890Z,49.80
2018-12-20T13:19:17.853Z,68.40
2018-12-20T13:21:53.995Z,67.20
2018-12-20T13:24:30.287Z,67.43
2018-12-20T13:27:06.733Z,89.20
2018-12-20T13:29:45.287Z,97.87
2018-12-20T13:32:21.365Z,108.23
2018-12-20T13:35:08.158Z,98.47
2018-12-20T13:37:52.678Z,71.60
2018-12-20T13:40:45.406Z,62.83
2018-12-20T13:43:26.312Z,51.70
2018-12-20T13:49:17.121Z,71.02
2018-12-20T13:52:09.457Z,100.80
2018-12-20T13:54:51.924Z,135.23
2018-12-20T13:57:28.042Z,115.17
2018-12-20T14:00:06.037Z,167.50
2018-12-20T14:02:41.948Z,132.93
2018-12-20T14:05:17.955Z,138.87
2018-12-20T14:07:58.835Z,230.77
2018-12-20T14:10:31.818Z,221.43
2018-12-20T14:13:07.805Z,183.53
2018-12-20T14:15:43.912Z,202.43
2018-12-20T14:18:19.923Z,194.83
2018-12-20T14:20:55.769Z,122.70
2018-12-20T14:23:32.042Z,141.77
2018-12-20T14:26:08.174Z,131.80
2018-12-20T14:28:44.488Z,128.40
2018-12-20T14:31:20.609Z,157.53
2018-12-20T14:33:59.529Z,230.57
2018-12-20T14:36:35.790Z,182.67
2018-12-20T14:39:11.799Z,200.27
2018-12-20T14:41:48.181Z,243.50
2018-12-20T14:44:19.361Z,216.37
2018-12-20T14:46:50.542Z,251.73
2018-12-20T14:49:21.620Z,373.17
2018-12-20T14:51:52.889Z,203.17
2018-12-20T14:54:23.932Z,209.60
2018-12-20T14:56:55.373Z,224.20
2018-12-20T14:59:26.514Z,172.03
2018-12-20T15:01:57.697Z,86.13
2018-12-20T15:04:28.782Z,116.20
2018-12-20T15:07:00.117Z,127.77
2018-12-20T15:09:31.083Z,133.50
2018-12-20T15:12:03.456Z,130.43
2018-12-20T15:14:35.214Z,153.23
2018-12-20T15:17:06.422Z,139.83
2018-12-20T15:19:37.524Z,134.73
2018-12-20T15:22:08.734Z,129.40
2018-12-20T15:24:39.804Z,129.00
2018-12-20T15:27:10.998Z,128.73
2018-12-20T15:29:42.463Z,129.27
2018-12-20T15:32:19.886Z,127.43
2018-12-20T15:34:56.548Z,137.27
2018-12-20T15:40:36.181Z,152.90
2018-12-20T15:43:21.667Z,112.97
2018-12-20T15:46:16.986Z,133.17
2018-12-20T15:49:57.605Z,112.40
2018-12-20T15:55:47.139Z,132.73
2018-12-20T15:58:20.779Z,228.43
2018-12-20T16:00:54.377Z,338.53
2018-12-20T16:03:30.549Z,423.83
2018-12-20T16:08:39.792Z,492.77
2018-12-20T16:11:11.065Z,335.77
2018-12-20T16:13:42.282Z,368.20
2018-12-20T16:16:13.361Z,486.90
2018-12-20T16:18:44.563Z,523.87
2018-12-20T16:21:18.442Z,500.80
2018-12-20T16:23:49.599Z,474.30
2018-12-20T16:26:20.729Z,591.30
2018-12-20T16:28:51.935Z,551.53
2018-12-20T16:31:23.469Z,390.47
2018-12-20T16:33:56.185Z,375.40
2018-12-20T16:36:28.051Z,481.83
2018-12-20T16:38:59.242Z,650.63
2018-12-20T16:41:30.405Z,572.53
2018-12-20T16:44:01.534Z,694.37
2018-12-20T16:46:32.637Z,833.17
2018-12-20T16:49:03.830Z,473.07
2018-12-20T16:51:35.122Z,424.30
2018-12-20T16:54:08.821Z,497.50
2018-12-20T16:56:43.874Z,853.23
2018-12-20T16:59:20.487Z,809.33
2018-12-20T17:01:57.984Z,591.47
2018-12-20T17:04:36.751Z,719.00
2018-12-20T17:07:16.239Z,530.10
2018-12-20T17:09:53.861Z,527.33
2018-12-20T17:12:33.204Z,758.33
2018-12-20T17:15:07.621Z,734.17
2018-12-20T17:20:40.638Z,710.03
2018-12-20T17:23:26.033Z,767.73
2018-12-20T17:26:04.102Z,677.50
2018-12-20T17:28:40.124Z,761.70
2018-12-20T17:31:15.716Z,560.63
2018-12-20T17:33:53.726Z,646.60
2018-12-20T17:36:27.207Z,621.40
2018-12-20T17:39:04.453Z,501.47
2018-12-20T17:41:36.420Z,516.00
2018-12-20T17:44:07.496Z,572.53
2018-12-20T17:46:38.670Z,483.43
2018-12-20T17:49:09.754Z,488.00
2018-12-20T17:53:07.558Z,552.73
2018-12-20T17:55:44.934Z,532.10
2018-12-20T17:58:14.148Z,526.77
2018-12-20T18:00:45.378Z,500.83
2018-12-20T18:03:16.469Z,579.27
2018-12-20T18:05:47.871Z,496.57
2018-12-20T18:08:19.160Z,575.30
2018-12-20T18:10:50.150Z,490.20
2018-12-20T18:13:21.348Z,462.97
2018-12-20T18:15:58.057Z,550.60
2018-12-20T18:18:29.274Z,582.30
2018-12-20T18:21:05.391Z,629.53
2018-12-20T18:23:44.683Z,623.73
2018-12-20T18:29:29.306Z,651.70
2018-12-20T18:32:08.129Z,583.17
2018-12-20T18:34:52.748Z,739.37
2018-12-20T18:37:25.347Z,603.43
2018-12-20T18:39:56.962Z,638.80
2018-12-20T18:42:43.968Z,788.60
2018-12-20T18:45:15.907Z,668.27
2018-12-20T18:47:46.969Z,611.70
2018-12-20T18:50:18.698Z,690.70
2018-12-20T18:52:49.952Z,726.00
2018-12-20T18:55:21.064Z,477.83
2018-12-20T18:57:52.144Z,512.83
2018-12-20T19:00:24.234Z,482.97
2018-12-20T19:02:55.459Z,318.97
2018-12-20T19:05:27.582Z,422.50
2018-12-20T19:07:59.382Z,463.87
2018-12-20T19:10:30.412Z,479.00
2018-12-20T19:13:01.474Z,480.30
2018-12-20T19:15:32.663Z,354.90
2018-12-20T19:18:03.760Z,351.53
2018-12-20T19:20:34.997Z,578.10
2018-12-20T19:24:30.225Z,383.33
2018-12-20T19:27:01.458Z,422.33
2018-12-20T19:29:32.557Z,466.87
2018-12-20T19:32:03.719Z,365.77
2018-12-20T19:34:34.798Z,509.93
2018-12-20T19:37:06.145Z,419.60
2018-12-20T19:39:37.938Z,434.23
2018-12-20T19:42:13.066Z,390.37
2018-12-20T19:44:44.005Z,397.20
2018-12-20T19:47:15.186Z,280.50
2018-12-20T19:49:46.266Z,253.77
2018-12-20T19:52:17.901Z,231.80
2018-12-20T19:54:48.934Z,218.87
2018-12-20T19:57:22.185Z,235.70
2018-12-20T19:59:53.259Z,191.30
2018-12-20T20:02:24.576Z,332.40
2018-12-20T20:04:56.367Z,358.47
2018-12-20T20:07:28.349Z,277.10
2018-12-20T20:09:59.877Z,455.00
2018-12-20T20:12:31.057Z,396.23
2018-12-20T20:15:02.050Z,395.97
2018-12-20T20:17:33.260Z,502.97
2018-12-20T20:20:13.519Z,546.23
2018-12-20T20:22:38.395Z,731.63
2018-12-20T20:25:09.561Z,510.47
2018-12-20T20:27:40.987Z,482.23
2018-12-20T20:30:14.459Z,550.00
2018-12-20T20:32:45.818Z,443.10
2018-12-20T20:35:16.748Z,436.13
2018-12-20T20:37:48.004Z,358.13
2018-12-20T20:40:19.039Z,355.63
2018-12-20T20:42:50.671Z,348.93
2018-12-20T20:45:21.647Z,316.67
2018-12-20T20:47:52.784Z,290.17
2018-12-20T20:50:24.007Z,241.60
2018-12-20T20:52:55.512Z,242.77
2018-12-20T20:55:26.500Z,288.60
2018-12-20T20:57:57.685Z,324.37
2018-12-20T21:00:34.390Z,361.53
2018-12-20T21:03:10.712Z,281.00
2018-12-20T21:05:46.856Z,269.27
2018-12-20T21:08:22.731Z,249.63
2018-12-20T21:10:58.867Z,294.53
2018-12-20T21:13:35.018Z,177.07
2018-12-20T21:16:11.302Z,184.50
2018-12-20T21:18:47.371Z,196.03
2018-12-20T21:21:23.243Z,202.10
2018-12-20T21:23:59.545Z,314.97
2018-12-20T21:26:35.895Z,278.43
2018-12-20T21:29:12.240Z,269.57
2018-12-20T21:31:48.285Z,267.47
2018-12-20T21:34:24.399Z,321.00
2018-12-20T21:37:00.383Z,265.20
2018-12-20T21:39:36.521Z,253.83
2018-12-20T21:42:12.707Z,214.70
2018-12-20T21:44:48.937Z,176.23
2018-12-20T21:47:24.937Z,179.63
2018-12-20T21:50:01.047Z,182.47
2018-12-20T21:52:37.396Z,196.20
2018-12-20T21:55:13.523Z,175.40
2018-12-20T21:57:44.571Z,162.13
2018-12-20T22:00:15.818Z,158.60
2018-12-20T22:02:46.883Z,170.13
2018-12-20T22:05:18.057Z,138.43
2018-12-20T22:07:49.243Z,134.37
2018-12-20T22:10:20.371Z,209.03
2018-12-20T22:12:50.838Z,221.57
2018-12-20T22:15:27.024Z,177.53
2018-12-20T22:18:02.959Z,147.80
2018-12-20T22:20:47.078Z,202.77
2018-12-20T22:23:17.238Z,169.23
2018-12-20T22:25:53.364Z,158.90
2018-12-20T22:28:29.229Z,160.83
2018-12-20T22:31:05.908Z,143.47
2018-12-20T22:33:41.765Z,161.40
2018-12-20T22:36:18.166Z,175.03
2018-12-20T22:38:54.193Z,138.33
2018-12-20T22:41:30.729Z,165.90
2018-12-20T22:44:06.925Z,184.80
2018-12-20T22:46:43.028Z,163.53
2018-12-20T22:49:19.046Z,135.63
2018-12-20T22:51:55.248Z,154.27
2018-12-20T22:54:31.184Z,127.10
2018-12-20T22:57:07.316Z,123.50
2018-12-20T22:59:43.606Z,137.83
2018-12-20T23:02:19.699Z,175.60
2018-12-20T23:04:55.774Z,165.30
2018-12-20T23:07:31.795Z,146.60
2018-12-20T23:10:08.668Z,177.17
2018-12-20T23:12:44.554Z,144.20
2018-12-20T23:15:20.586Z,193.40
2018-12-20T23:17:56.678Z,167.00
2018-12-20T23:20:33.211Z,201.20
2018-12-20T23:23:09.418Z,152.37
2018-12-20T23:25:45.441Z,197.63
2018-12-20T23:28:21.541Z,206.20
2018-12-20T23:30:57.572Z,200.23
2018-12-20T23:33:33.501Z,190.23
2018-12-20T23:36:09.715Z,208.57
2018-12-20T23:38:45.770Z,205.03
2018-12-20T23:41:22.102Z,240.53
2018-12-20T23:43:57.986Z,295.63
2018-12-20T23:46:34.230Z,292.27
2018-12-20T23:49:10.332Z,309.83
2018-12-20T23:51:46.340Z,355.00
2018-12-20T23:54:22.473Z,221.17
2018-12-20T23:56:58.473Z,232.83
2018-12-20T23:59:34.613Z,208.07
